createdAt,value
2019-05-12T00:00:21.838Z,75.05
2019-05-12T00:01:28.676Z,75.62
2019-05-12T00:02:32.848Z,75.34
2019-05-12T00:03:38.357Z,76.10
2019-05-12T00:04:43.874Z,75.81
2019-05-12T00:05:49.387Z,75.62
2019-05-12T00:06:54.884Z,75.81
2019-05-12T00:08:00.396Z,75.91
2019-05-12T00:09:08.172Z,75.72
2019-05-12T00:10:11.411Z,75.91
2019-05-12T00:11:17.941Z,76.10
2019-05-12T00:12:22.429Z,76.10
2019-05-12T00:13:28.099Z,75.81
2019-05-12T00:14:33.444Z,75.72
2019-05-12T00:15:38.952Z,75.81
2019-05-12T00:16:44.462Z,76.20
2019-05-12T00:17:49.963Z,76.10
2019-05-12T00:18:55.480Z,76.39
2019-05-12T00:20:00.991Z,76.57
2019-05-12T00:21:08.642Z,76.57
2019-05-12T00:22:11.996Z,76.96
2019-05-12T00:23:24.959Z,76.39
2019-05-12T00:24:23.027Z,77.34
2019-05-12T00:25:28.524Z,76.48
2019-05-12T00:26:34.035Z,76.86
2019-05-12T00:27:39.545Z,77.53
2019-05-12T00:28:45.045Z,76.76
2019-05-12T00:29:50.556Z,77.81
2019-05-12T00:30:58.059Z,77.53
2019-05-12T00:32:01.577Z,78.19
2019-05-12T00:33:09.335Z,77.81
2019-05-12T00:34:12.590Z,78.38
2019-05-12T00:35:18.290Z,77.81
2019-05-12T00:36:23.608Z,78.67
2019-05-12T00:37:29.132Z,78.29
2019-05-12T00:38:34.632Z,78.48
2019-05-12T00:39:40.131Z,78.48
2019-05-12T00:40:47.709Z,78.86
2019-05-12T00:41:51.142Z,78.77
2019-05-12T00:42:57.757Z,79.43
2019-05-12T00:44:02.159Z,78.48
2019-05-12T00:45:08.159Z,79.05
2019-05-12T00:46:13.174Z,78.96
2019-05-12T00:47:18.881Z,78.86
2019-05-12T00:48:24.188Z,79.24
2019-05-12T00:49:29.696Z,78.86
2019-05-12T00:50:35.210Z,79.14
2019-05-12T00:51:40.725Z,79.24
2019-05-12T00:52:48.591Z,79.43
2019-05-12T00:53:51.736Z,79.43
2019-05-12T00:54:58.656Z,79.52
2019-05-12T00:56:02.751Z,79.05
2019-05-12T00:57:08.263Z,79.05
2019-05-12T00:58:13.806Z,79.24
2019-05-12T00:59:19.277Z,78.99
2019-05-12T01:00:24.777Z,78.90
2019-05-12T01:01:30.294Z,78.90
2019-05-12T01:02:37.941Z,78.96
2019-05-12T01:03:41.307Z,79.14
2019-05-12T01:04:48.684Z,79.09
2019-05-12T01:05:52.336Z,78.99
2019-05-12T01:06:58.251Z,78.42
2019-05-12T01:08:03.341Z,78.33
2019-05-12T01:09:09.123Z,78.61
2019-05-12T01:10:14.401Z,78.33
2019-05-12T01:11:19.865Z,78.04
2019-05-12T01:12:25.375Z,78.14
2019-05-12T01:13:30.887Z,78.48
2019-05-12T01:14:38.270Z,78.33
2019-05-12T01:15:41.911Z,78.19
2019-05-12T01:16:48.619Z,78.42
2019-05-12T01:17:52.909Z,77.66
2019-05-12T01:18:58.661Z,77.62
2019-05-12T01:20:03.939Z,78.00
2019-05-12T01:21:09.439Z,77.56
2019-05-12T01:22:14.947Z,77.19
2019-05-12T01:23:23.393Z,77.24
2019-05-12T01:24:28.240Z,77.34
2019-05-12T01:25:31.481Z,77.34
2019-05-12T01:26:38.739Z,77.72
2019-05-12T01:27:42.501Z,77.43
2019-05-12T01:28:48.772Z,77.81
2019-05-12T01:29:53.516Z,77.72
2019-05-12T01:30:59.017Z,77.72
2019-05-12T01:32:04.533Z,77.62
2019-05-12T01:33:10.042Z,77.91
2019-05-12T01:34:15.555Z,77.53
2019-05-12T01:35:21.055Z,77.62
2019-05-12T01:36:28.659Z,77.62
2019-05-12T01:37:32.070Z,78.29
2019-05-12T01:38:38.039Z,78.61
2019-05-12T01:39:43.081Z,78.38
2019-05-12T01:40:48.594Z,78.19
2019-05-12T01:41:54.098Z,78.38
2019-05-12T01:42:59.616Z,78.19
2019-05-12T01:44:05.131Z,78.19
2019-05-12T01:45:10.638Z,78.19
2019-05-12T01:46:18.131Z,78.57
2019-05-12T01:47:21.642Z,78.29
2019-05-12T01:48:28.685Z,78.48
2019-05-12T01:49:32.666Z,78.86
2019-05-12T01:50:38.810Z,78.77
2019-05-12T01:51:43.671Z,79.05
2019-05-12T01:52:49.189Z,78.90
2019-05-12T01:54:08.623Z,78.96
2019-05-12T01:55:00.196Z,78.80
2019-05-12T01:56:07.781Z,78.42
2019-05-12T01:57:11.211Z,78.99
2019-05-12T01:58:19.316Z,79.09
2019-05-12T01:59:22.237Z,78.80
2019-05-12T02:00:28.588Z,78.90
2019-05-12T02:01:33.263Z,78.90
2019-05-12T02:02:38.756Z,78.71
2019-05-12T02:03:44.268Z,78.90
2019-05-12T02:04:49.774Z,78.90
2019-05-12T02:05:55.282Z,78.99
2019-05-12T02:07:00.794Z,78.99
2019-05-12T02:08:06.296Z,78.90
2019-05-12T02:09:11.809Z,78.99
2019-05-12T02:10:17.957Z,79.19
2019-05-12T02:11:22.816Z,78.96
2019-05-12T02:12:28.856Z,78.90
2019-05-12T02:13:33.838Z,78.90
2019-05-12T02:14:39.352Z,78.52
2019-05-12T02:15:44.862Z,78.61
2019-05-12T02:16:50.363Z,78.67
2019-05-12T02:17:55.883Z,78.71
2019-05-12T02:19:01.376Z,78.71
2019-05-12T02:20:07.752Z,79.19
2019-05-12T02:21:12.409Z,78.90
2019-05-12T02:22:19.002Z,78.99
2019-05-12T02:23:23.413Z,79.38
2019-05-12T02:24:30.579Z,78.99
2019-05-12T02:25:34.432Z,79.19
2019-05-12T02:26:39.941Z,79.09
2019-05-12T02:27:47.504Z,79.09
2019-05-12T02:28:50.952Z,78.90
2019-05-12T02:29:58.491Z,79.19
2019-05-12T02:31:01.979Z,78.90
2019-05-12T02:32:07.492Z,79.19
2019-05-12T02:33:15.948Z,78.90
2019-05-12T02:34:18.499Z,78.90
2019-05-12T02:35:24.838Z,78.99
2019-05-12T02:36:29.520Z,78.99
2019-05-12T02:37:35.926Z,79.19
2019-05-12T02:38:40.533Z,78.71
2019-05-12T02:39:46.039Z,78.71
2019-05-12T02:40:51.546Z,78.71
2019-05-12T02:41:57.058Z,78.80
2019-05-12T02:43:05.396Z,78.90
2019-05-12T02:44:08.080Z,78.71
2019-05-12T02:45:15.350Z,78.90
2019-05-12T02:46:19.090Z,78.42
2019-05-12T02:47:24.601Z,78.33
2019-05-12T02:48:30.112Z,78.90
2019-05-12T02:49:35.617Z,78.61
2019-05-12T02:50:41.125Z,78.61
2019-05-12T02:51:46.657Z,78.33
2019-05-12T02:52:54.554Z,78.42
2019-05-12T02:53:57.651Z,78.33
2019-05-12T02:55:05.977Z,78.14
2019-05-12T02:56:08.663Z,78.23
2019-05-12T02:57:14.390Z,78.23
2019-05-12T02:58:19.681Z,78.90
2019-05-12T02:59:25.550Z,78.71
2019-05-12T03:00:30.718Z,79.28
2019-05-12T03:01:36.211Z,78.80
2019-05-12T03:02:44.205Z,78.80
2019-05-12T03:03:47.227Z,78.71
2019-05-12T03:04:54.803Z,78.80
2019-05-12T03:05:58.245Z,78.80
2019-05-12T03:07:06.592Z,78.90
2019-05-12T03:08:09.272Z,79.09
2019-05-12T03:09:15.275Z,78.99
2019-05-12T03:10:20.278Z,78.61
2019-05-12T03:11:25.797Z,78.99
2019-05-12T03:12:34.272Z,79.28
2019-05-12T03:13:36.811Z,79.09
2019-05-12T03:14:44.717Z,78.99
2019-05-12T03:15:47.821Z,78.71
2019-05-12T03:16:54.020Z,78.80
2019-05-12T03:17:58.853Z,78.52
2019-05-12T03:19:05.218Z,78.61
2019-05-12T03:20:09.854Z,78.33
2019-05-12T03:21:15.496Z,78.42
2019-05-12T03:22:20.886Z,78.42
2019-05-12T03:23:26.380Z,78.33
2019-05-12T03:24:34.183Z,78.61
2019-05-12T03:25:37.575Z,78.33
2019-05-12T03:26:44.993Z,78.61
2019-05-12T03:27:48.413Z,78.61
2019-05-12T03:28:55.535Z,78.33
2019-05-12T03:29:59.454Z,78.61
2019-05-12T03:31:07.768Z,78.42
2019-05-12T03:32:10.458Z,78.23
2019-05-12T03:33:19.088Z,78.33
2019-05-12T03:34:21.474Z,78.33
2019-05-12T03:35:33.100Z,78.42
2019-05-12T03:36:39.136Z,78.90
2019-05-12T03:37:37.998Z,78.71
2019-05-12T03:38:44.733Z,78.61
2019-05-12T03:39:49.006Z,78.42
2019-05-12T03:40:55.146Z,78.23
2019-05-12T03:42:00.029Z,79.19
2019-05-12T03:43:05.877Z,78.42
2019-05-12T03:44:11.043Z,78.99
2019-05-12T03:45:16.553Z,78.90
2019-05-12T03:46:24.850Z,78.71
2019-05-12T03:47:27.564Z,78.99
2019-05-12T03:48:34.906Z,78.90
2019-05-12T03:49:38.592Z,78.42
2019-05-12T03:50:46.180Z,78.71
2019-05-12T03:51:49.606Z,79.09
2019-05-12T03:52:56.609Z,79.09
2019-05-12T03:54:00.620Z,79.09
2019-05-12T03:55:24.759Z,78.90
2019-05-12T03:56:14.861Z,78.99
2019-05-12T03:57:17.165Z,78.99
2019-05-12T03:58:25.298Z,78.90
2019-05-12T03:59:28.162Z,78.80
2019-05-12T04:00:35.907Z,78.90
2019-05-12T04:01:39.180Z,79.09
2019-05-12T04:02:45.552Z,79.38
2019-05-12T04:03:50.197Z,78.80
2019-05-12T04:04:55.751Z,78.61
2019-05-12T04:06:04.452Z,78.80
2019-05-12T04:07:06.741Z,78.90
2019-05-12T04:08:15.405Z,79.09
2019-05-12T04:09:17.739Z,78.71
2019-05-12T04:10:24.702Z,78.90
2019-05-12T04:11:28.757Z,78.80
2019-05-12T04:12:34.846Z,79.19
2019-05-12T04:13:39.772Z,79.47
2019-05-12T04:14:45.275Z,79.28
2019-05-12T04:15:50.794Z,78.99
2019-05-12T04:16:56.323Z,78.99
2019-05-12T04:18:04.910Z,78.99
2019-05-12T04:19:07.330Z,79.19
2019-05-12T04:20:15.235Z,79.47
2019-05-12T04:21:18.348Z,79.38
2019-05-12T04:22:24.912Z,78.99
2019-05-12T04:23:29.348Z,79.19
2019-05-12T04:24:35.871Z,79.19
2019-05-12T04:25:52.845Z,79.28
2019-05-12T04:26:45.880Z,79.28
2019-05-12T04:27:54.051Z,79.75
2019-05-12T04:28:56.895Z,79.66
2019-05-12T04:30:05.282Z,79.28
2019-05-12T04:31:07.919Z,79.19
2019-05-12T04:32:14.389Z,79.47
2019-05-12T04:33:18.924Z,79.94
2019-05-12T04:34:25.299Z,79.66
2019-05-12T04:35:29.944Z,79.57
2019-05-12T04:36:35.959Z,80.04
2019-05-12T04:37:40.958Z,80.04
2019-05-12T04:38:46.467Z,79.85
2019-05-12T04:39:55.223Z,79.85
2019-05-12T04:40:57.484Z,79.66
2019-05-12T04:42:05.292Z,80.33
2019-05-12T04:43:08.505Z,80.33
2019-05-12T04:44:15.134Z,79.85
2019-05-12T04:45:19.520Z,79.75
2019-05-12T04:46:25.478Z,79.85
2019-05-12T04:47:30.538Z,79.28
2019-05-12T04:48:36.170Z,79.57
2019-05-12T04:49:41.551Z,78.71
2019-05-12T04:50:47.064Z,78.90
2019-05-12T04:51:54.604Z,78.61
2019-05-12T04:52:58.085Z,78.71
2019-05-12T04:54:05.713Z,78.90
2019-05-12T04:55:09.095Z,79.19
2019-05-12T04:56:19.829Z,78.90
2019-05-12T04:57:21.089Z,78.90
2019-05-12T04:58:25.717Z,78.90
2019-05-12T04:59:34.316Z,78.42
2019-05-12T05:00:36.637Z,78.80
2019-05-12T05:01:45.108Z,78.90
2019-05-12T05:02:47.658Z,79.09
2019-05-12T05:03:54.566Z,78.99
2019-05-12T05:04:58.670Z,78.71
2019-05-12T05:06:04.594Z,78.90
2019-05-12T05:07:09.687Z,79.47
2019-05-12T05:08:19.528Z,79.28
2019-05-12T05:09:20.727Z,78.90
2019-05-12T05:10:26.212Z,78.80
2019-05-12T05:11:34.350Z,78.90
2019-05-12T05:12:37.233Z,79.66
2019-05-12T05:13:44.413Z,79.75
2019-05-12T05:14:48.245Z,79.38
2019-05-12T05:15:54.923Z,78.90
2019-05-12T05:16:59.298Z,78.90
2019-05-12T05:18:06.789Z,78.90
2019-05-12T05:19:10.283Z,79.28
2019-05-12T05:20:15.791Z,79.38
2019-05-12T05:21:21.300Z,78.99
2019-05-12T05:22:26.807Z,79.09
2019-05-12T05:23:33.500Z,78.61
2019-05-12T05:24:37.825Z,78.61
2019-05-12T05:25:43.591Z,79.28
2019-05-12T05:26:48.846Z,79.19
2019-05-12T05:27:54.361Z,79.19
2019-05-12T05:28:59.855Z,79.22
2019-05-12T05:30:05.363Z,79.41
2019-05-12T05:31:10.880Z,79.32
2019-05-12T05:32:16.385Z,79.32
2019-05-12T05:33:23.799Z,79.41
2019-05-12T05:34:27.402Z,79.22
2019-05-12T05:35:35.141Z,79.22
2019-05-12T05:36:38.413Z,78.94
2019-05-12T05:37:44.369Z,79.13
2019-05-12T05:38:51.048Z,79.22
2019-05-12T05:39:54.953Z,78.94
2019-05-12T05:41:05.869Z,78.56
2019-05-12T05:42:05.973Z,78.27
2019-05-12T05:43:12.814Z,78.65
2019-05-12T05:44:16.985Z,78.56
2019-05-12T05:45:25.877Z,78.56
2019-05-12T05:46:27.995Z,78.46
2019-05-12T05:47:33.728Z,77.42
2019-05-12T05:48:39.016Z,78.17
2019-05-12T05:49:44.520Z,77.98
2019-05-12T05:50:50.033Z,78.27
2019-05-12T05:51:57.545Z,78.27
2019-05-12T05:53:03.546Z,78.46
2019-05-12T05:54:06.566Z,77.03
2019-05-12T05:55:19.888Z,76.65
2019-05-12T05:56:18.378Z,76.84
2019-05-12T05:57:25.779Z,76.94
2019-05-12T05:58:28.597Z,77.51
2019-05-12T05:59:36.738Z,77.51
2019-05-12T06:00:39.665Z,77.61
2019-05-12T06:01:46.942Z,77.51
2019-05-12T06:02:50.647Z,77.03
2019-05-12T06:03:58.409Z,77.22
2019-05-12T06:05:04.211Z,76.69
2019-05-12T06:06:12.208Z,77.07
2019-05-12T06:07:14.370Z,76.59
2019-05-12T06:08:20.809Z,76.69
2019-05-12T06:09:23.693Z,76.98
2019-05-12T06:10:35.281Z,76.50
2019-05-12T06:11:34.748Z,76.69
2019-05-12T06:12:44.925Z,76.88
2019-05-12T06:13:45.717Z,76.50
2019-05-12T06:14:55.224Z,76.21
2019-05-12T06:15:56.745Z,75.84
2019-05-12T06:17:04.181Z,75.93
2019-05-12T06:18:07.769Z,75.55
2019-05-12T06:19:14.048Z,76.12
2019-05-12T06:20:18.785Z,75.36
2019-05-12T06:21:24.311Z,74.98
2019-05-12T06:22:29.787Z,74.98
2019-05-12T06:23:39.176Z,75.07
2019-05-12T06:24:40.804Z,75.45
2019-05-12T06:25:51.352Z,74.98
2019-05-12T06:26:59.532Z,75.55
2019-05-12T06:27:59.990Z,75.16
2019-05-12T06:29:04.424Z,74.88
2019-05-12T06:30:08.364Z,75.36
2019-05-12T06:31:13.998Z,74.12
2019-05-12T06:32:19.372Z,74.69
2019-05-12T06:33:31.682Z,74.60
2019-05-12T06:34:30.393Z,74.21
2019-05-12T06:35:40.813Z,74.79
2019-05-12T06:36:41.410Z,74.60
2019-05-12T06:37:57.110Z,74.50
2019-05-12T06:38:54.093Z,75.36
2019-05-12T06:40:00.464Z,74.60
2019-05-12T06:41:03.674Z,74.50
2019-05-12T06:42:14.152Z,74.69
2019-05-12T06:43:14.461Z,75.07
2019-05-12T06:44:19.973Z,74.21
2019-05-12T06:45:28.377Z,74.40
2019-05-12T06:46:30.994Z,74.40
2019-05-12T06:47:39.246Z,74.40
2019-05-12T06:48:43.317Z,74.73
2019-05-12T06:49:48.888Z,73.96
2019-05-12T06:50:53.511Z,73.96
2019-05-12T06:52:01.775Z,74.35
2019-05-12T06:53:05.176Z,74.54
2019-05-12T06:54:11.941Z,74.54
2019-05-12T06:55:15.082Z,75.20
2019-05-12T06:56:20.575Z,74.44
2019-05-12T06:57:28.777Z,74.35
2019-05-12T06:58:34.294Z,74.73
2019-05-12T06:59:37.103Z,74.54
2019-05-12T07:00:43.799Z,74.63
2019-05-12T07:01:49.897Z,74.54
2019-05-12T07:02:55.298Z,74.44
2019-05-12T07:04:00.650Z,74.16
2019-05-12T07:05:04.669Z,73.68
2019-05-12T07:06:17.510Z,72.44
2019-05-12T07:07:15.674Z,70.82
2019-05-12T07:08:27.509Z,70.72
2019-05-12T07:09:28.718Z,71.58
2019-05-12T07:10:42.673Z,72.25
2019-05-12T07:11:44.674Z,71.77
2019-05-12T07:12:58.173Z,71.77
2019-05-12T07:14:01.306Z,71.30
2019-05-12T07:14:57.695Z,71.48
2019-05-12T07:15:59.763Z,71.39
2019-05-12T07:17:06.231Z,71.68
2019-05-12T07:18:10.784Z,71.48
2019-05-12T07:19:22.485Z,72.34
2019-05-12T07:20:23.879Z,72.06
2019-05-12T07:21:27.481Z,72.16
2019-05-12T07:22:43.858Z,72.28
2019-05-12T07:23:38.328Z,72.48
2019-05-12T07:24:50.072Z,72.09
2019-05-12T07:25:49.333Z,72.19
2019-05-12T07:27:04.355Z,71.33
2019-05-12T07:28:02.720Z,70.67
2019-05-12T07:29:05.870Z,71.04
2019-05-12T07:30:13.525Z,71.04
2019-05-12T07:31:16.888Z,70.95
2019-05-12T07:32:24.617Z,70.67
2019-05-12T07:33:32.780Z,70.67
2019-05-12T07:34:33.526Z,70.76
2019-05-12T07:35:38.925Z,71.43
2019-05-12T07:36:44.435Z,71.23
2019-05-12T07:37:49.948Z,71.14
2019-05-12T07:39:03.773Z,70.38
2019-05-12T07:40:00.961Z,71.23
2019-05-12T07:41:10.542Z,70.09
2019-05-12T07:42:13.378Z,69.04
2019-05-12T07:43:20.614Z,68.76
2019-05-12T07:44:25.235Z,69.33
2019-05-12T07:45:28.511Z,68.57
2019-05-12T07:46:34.355Z,68.38
2019-05-12T07:47:39.531Z,67.80
2019-05-12T07:48:46.508Z,67.42
2019-05-12T07:49:50.553Z,66.31
2019-05-12T07:51:00.414Z,66.38
2019-05-12T07:52:03.632Z,66.98
2019-05-12T07:53:07.081Z,67.61
2019-05-12T07:54:14.293Z,67.33
2019-05-12T07:55:18.110Z,67.36
2019-05-12T07:56:25.966Z,67.17
2019-05-12T07:57:29.125Z,67.36
2019-05-12T07:58:34.627Z,67.14
2019-05-12T07:59:41.165Z,67.14
2019-05-12T08:00:45.658Z,67.80
2019-05-12T08:01:52.620Z,68.47
2019-05-12T08:02:56.677Z,68.28
2019-05-12T08:04:04.370Z,67.61
2019-05-12T08:05:11.174Z,67.33
2019-05-12T08:06:14.219Z,67.52
2019-05-12T08:07:19.754Z,67.71
2019-05-12T08:08:24.219Z,68.18
2019-05-12T08:09:32.258Z,68.18
2019-05-12T08:10:35.240Z,68.66
2019-05-12T08:11:40.763Z,67.33
2019-05-12T08:12:46.412Z,66.94
2019-05-12T08:13:54.106Z,67.52
2019-05-12T08:14:59.344Z,67.23
2019-05-12T08:16:03.706Z,67.80
2019-05-12T08:17:12.217Z,67.71
2019-05-12T08:18:14.113Z,67.33
2019-05-12T08:19:24.016Z,67.14
2019-05-12T08:20:24.828Z,65.33
2019-05-12T08:21:34.845Z,63.89
2019-05-12T08:22:35.853Z,62.75
2019-05-12T08:23:41.366Z,62.56
2019-05-12T08:24:48.218Z,62.56
2019-05-12T08:25:53.960Z,62.46
2019-05-12T08:27:03.039Z,62.30
2019-05-12T08:28:12.274Z,62.59
2019-05-12T08:29:10.391Z,62.21
2019-05-12T08:30:14.420Z,62.27
2019-05-12T08:31:23.505Z,60.97
2019-05-12T08:32:27.270Z,60.87
2019-05-12T08:33:30.959Z,61.35
2019-05-12T08:34:39.705Z,60.68
2019-05-12T08:35:43.859Z,60.58
2019-05-12T08:36:53.402Z,60.78
2019-05-12T08:37:54.425Z,60.97
2019-05-12T08:38:58.505Z,60.87
2019-05-12T08:40:07.510Z,61.07
2019-05-12T08:41:09.529Z,60.58
2019-05-12T08:42:15.042Z,60.81
2019-05-12T08:43:20.551Z,61.00
2019-05-12T08:44:33.457Z,60.61
2019-05-12T08:45:37.051Z,62.15
2019-05-12T08:46:37.105Z,62.15
2019-05-12T08:47:44.106Z,60.42
2019-05-12T08:48:51.538Z,60.90
2019-05-12T08:49:58.315Z,59.95
2019-05-12T08:50:59.123Z,60.81
2019-05-12T08:52:04.689Z,62.05
2019-05-12T08:53:12.254Z,61.57
2019-05-12T08:54:15.640Z,61.79
2019-05-12T08:55:25.157Z,61.89
2019-05-12T08:56:26.662Z,61.22
2019-05-12T08:57:40.508Z,60.64
2019-05-12T08:58:47.350Z,60.93
2019-05-12T08:59:44.146Z,61.13
2019-05-12T09:00:50.527Z,61.22
2019-05-12T09:01:54.268Z,61.98
2019-05-12T09:02:59.727Z,62.08
2019-05-12T09:04:09.264Z,61.95
2019-05-12T09:05:10.756Z,61.86
2019-05-12T09:06:19.722Z,60.42
2019-05-12T09:07:23.781Z,60.90
2019-05-12T09:08:27.296Z,62.24
2019-05-12T09:09:33.707Z,62.24
2019-05-12T09:10:38.307Z,62.05
2019-05-12T09:11:44.164Z,61.19
2019-05-12T09:12:49.331Z,61.66
2019-05-12T09:14:00.689Z,61.10
2019-05-12T09:15:00.347Z,61.00
2019-05-12T09:16:05.856Z,60.81
2019-05-12T09:17:11.380Z,61.10
2019-05-12T09:18:18.898Z,60.81
2019-05-12T09:19:24.914Z,60.61
2019-05-12T09:20:27.906Z,60.42
2019-05-12T09:21:34.868Z,59.78
2019-05-12T09:22:38.920Z,60.46
2019-05-12T09:23:45.662Z,60.07
2019-05-12T09:24:49.945Z,60.36
2019-05-12T09:25:57.144Z,59.88
2019-05-12T09:27:07.007Z,59.22
2019-05-12T09:28:06.477Z,59.02
2019-05-12T09:29:13.834Z,59.22
2019-05-12T09:30:17.500Z,59.22
2019-05-12T09:31:25.353Z,59.12
2019-05-12T09:32:28.528Z,59.12
2019-05-12T09:33:34.680Z,58.36
2019-05-12T09:34:46.929Z,59.31
2019-05-12T09:35:45.076Z,59.78
2019-05-12T09:36:51.943Z,59.88
2019-05-12T09:37:56.081Z,59.78
2019-05-12T09:39:03.007Z,59.22
2019-05-12T09:40:07.105Z,58.45
2019-05-12T09:41:13.961Z,58.36
2019-05-12T09:42:19.244Z,58.36
2019-05-12T09:43:24.042Z,58.36
2019-05-12T09:44:30.557Z,57.59
2019-05-12T09:45:34.701Z,57.31
2019-05-12T09:46:40.166Z,58.45
2019-05-12T09:47:45.671Z,57.71
2019-05-12T09:48:52.979Z,57.33
2019-05-12T09:49:56.699Z,56.95
2019-05-12T09:51:05.055Z,58.10
2019-05-12T09:52:07.723Z,58.10
2019-05-12T09:53:14.474Z,57.53
2019-05-12T09:54:18.781Z,58.19
2019-05-12T09:55:24.758Z,58.19
2019-05-12T09:56:29.763Z,57.62
2019-05-12T09:57:40.584Z,57.24
2019-05-12T09:58:40.837Z,56.95
2019-05-12T09:59:57.257Z,57.71
2019-05-12T10:00:54.158Z,57.40
2019-05-12T10:01:57.315Z,57.40
2019-05-12T10:03:04.911Z,58.36
2019-05-12T10:04:10.237Z,58.45
2019-05-12T10:05:14.378Z,57.59
2019-05-12T10:06:21.225Z,56.92
2019-05-12T10:07:24.899Z,57.62
2019-05-12T10:08:35.815Z,57.14
2019-05-12T10:09:35.895Z,55.61
2019-05-12T10:10:44.549Z,55.71
2019-05-12T10:11:53.931Z,55.71
2019-05-12T10:12:53.579Z,54.37
2019-05-12T10:14:00.491Z,55.13
2019-05-12T10:15:04.320Z,55.23
2019-05-12T10:16:09.028Z,55.23
2019-05-12T10:17:14.471Z,54.27
2019-05-12T10:18:19.994Z,54.66
2019-05-12T10:19:25.499Z,54.94
2019-05-12T10:20:35.254Z,55.54
2019-05-12T10:21:36.515Z,56.50
2019-05-12T10:22:43.715Z,55.64
2019-05-12T10:23:51.563Z,54.39
2019-05-12T10:24:58.323Z,54.21
2019-05-12T10:26:01.432Z,55.26
2019-05-12T10:27:04.074Z,54.88
2019-05-12T10:28:11.878Z,55.35
2019-05-12T10:29:20.345Z,53.44
2019-05-12T10:30:20.610Z,53.53
2019-05-12T10:31:29.660Z,54.30
2019-05-12T10:32:31.631Z,53.56
2019-05-12T10:33:37.137Z,53.75
2019-05-12T10:34:44.361Z,53.37
2019-05-12T10:35:48.156Z,52.99
2019-05-12T10:36:54.124Z,53.08
2019-05-12T10:38:00.244Z,54.43
2019-05-12T10:39:04.694Z,52.99
2019-05-12T10:40:10.214Z,53.37
2019-05-12T10:41:15.727Z,52.99
2019-05-12T10:42:21.236Z,52.80
2019-05-12T10:43:26.749Z,52.89
2019-05-12T10:44:39.189Z,52.51
2019-05-12T10:45:37.765Z,52.51
2019-05-12T10:46:43.281Z,53.66
2019-05-12T10:47:48.788Z,52.89
2019-05-12T10:48:54.304Z,52.61
2019-05-12T10:49:59.826Z,53.08
2019-05-12T10:51:05.331Z,52.99
2019-05-12T10:52:10.840Z,53.37
2019-05-12T10:53:17.901Z,53.56
2019-05-12T10:54:23.965Z,54.33
2019-05-12T10:55:27.376Z,54.71
2019-05-12T10:56:34.813Z,52.51
2019-05-12T10:57:39.144Z,52.99
2019-05-12T10:58:44.045Z,53.37
2019-05-12T10:59:49.420Z,52.80
2019-05-12T11:00:58.820Z,51.97
2019-05-12T11:02:00.447Z,52.99
2019-05-12T11:03:10.771Z,53.66
2019-05-12T11:04:11.478Z,53.66
2019-05-12T11:05:21.443Z,53.75
2019-05-12T11:06:24.299Z,54.71
2019-05-12T11:07:29.902Z,54.07
2019-05-12T11:08:33.527Z,53.56
2019-05-12T11:09:39.036Z,54.23
2019-05-12T11:10:44.541Z,54.45
2019-05-12T11:11:50.059Z,52.34
2019-05-12T11:12:59.257Z,52.13
2019-05-12T11:14:01.082Z,52.34
2019-05-12T11:15:08.185Z,53.59
2019-05-12T11:16:14.663Z,53.88
2019-05-12T11:17:17.612Z,53.69
2019-05-12T11:18:26.141Z,52.44
2019-05-12T11:19:28.658Z,52.54
2019-05-12T11:20:34.564Z,52.44
2019-05-12T11:21:39.669Z,51.68
2019-05-12T11:22:45.194Z,51.61
2019-05-12T11:23:50.691Z,52.37
2019-05-12T11:24:56.202Z,53.42
2019-05-12T11:26:03.737Z,53.33
2019-05-12T11:27:07.263Z,53.52
2019-05-12T11:28:14.022Z,53.52
2019-05-12T11:29:18.248Z,52.56
2019-05-12T11:30:23.906Z,53.23
2019-05-12T11:31:29.272Z,53.81
2019-05-12T11:32:37.902Z,53.69
2019-05-12T11:33:40.298Z,53.59
2019-05-12T11:34:45.811Z,54.36
2019-05-12T11:35:51.332Z,54.07
2019-05-12T11:36:56.844Z,53.59
2019-05-12T11:38:04.515Z,53.88
2019-05-12T11:39:07.869Z,54.07
2019-05-12T11:40:13.376Z,53.88
2019-05-12T11:41:20.263Z,54.45
2019-05-12T11:42:24.401Z,54.16
2019-05-12T11:43:29.976Z,54.10
2019-05-12T11:44:35.442Z,54.28
2019-05-12T11:45:40.930Z,53.14
2019-05-12T11:46:46.446Z,52.66
2019-05-12T11:47:59.158Z,51.61
2019-05-12T11:48:57.473Z,51.03
2019-05-12T11:50:05.051Z,49.98
2019-05-12T11:51:08.500Z,49.79
2019-05-12T11:52:18.517Z,51.70
2019-05-12T11:53:21.837Z,52.56
2019-05-12T11:54:27.899Z,51.70
2019-05-12T11:55:31.872Z,51.39
2019-05-12T11:56:40.421Z,51.29
2019-05-12T11:57:43.667Z,51.29
2019-05-12T11:58:51.318Z,51.87
2019-05-12T11:59:59.138Z,51.20
2019-05-12T12:01:06.409Z,51.58
2019-05-12T12:02:03.623Z,51.87
2019-05-12T12:03:13.188Z,51.77
2019-05-12T12:04:14.643Z,51.20
2019-05-12T12:05:20.161Z,51.87
2019-05-12T12:06:25.727Z,52.73
2019-05-12T12:07:33.151Z,53.69
2019-05-12T12:08:37.369Z,53.49
2019-05-12T12:09:43.822Z,53.69
2019-05-12T12:10:49.349Z,53.97
2019-05-12T12:11:55.881Z,54.36
2019-05-12T12:12:58.748Z,54.45
2019-05-12T12:14:06.425Z,53.30
2019-05-12T12:15:09.772Z,53.20
2019-05-12T12:16:15.303Z,53.69
2019-05-12T12:17:22.910Z,53.11
2019-05-12T12:18:26.306Z,52.75
2019-05-12T12:19:34.945Z,53.33
2019-05-12T12:20:37.329Z,53.71
2019-05-12T12:21:48.117Z,52.25
2019-05-12T12:22:48.350Z,52.37
2019-05-12T12:23:53.871Z,51.87
2019-05-12T12:25:05.127Z,51.01
2019-05-12T12:26:04.902Z,51.61
2019-05-12T12:27:10.417Z,51.79
2019-05-12T12:28:15.920Z,51.22
2019-05-12T12:29:21.432Z,51.42
2019-05-12T12:30:26.954Z,50.43
2019-05-12T12:31:35.578Z,51.10
2019-05-12T12:32:37.977Z,51.70
2019-05-12T12:33:47.037Z,51.22
2019-05-12T12:34:48.996Z,51.70
2019-05-12T12:35:56.759Z,50.26
2019-05-12T12:37:00.028Z,49.60
2019-05-12T12:38:05.525Z,50.26
2019-05-12T12:39:13.049Z,49.79
2019-05-12T12:40:16.560Z,50.17
2019-05-12T12:41:23.695Z,49.88
2019-05-12T12:42:30.369Z,48.93
2019-05-12T12:43:33.092Z,50.46
2019-05-12T12:44:38.615Z,50.74
2019-05-12T12:45:44.118Z,50.36
2019-05-12T12:46:51.273Z,50.56
2019-05-12T12:47:55.144Z,50.84
2019-05-12T12:49:06.455Z,51.79
2019-05-12T12:50:06.172Z,51.13
2019-05-12T12:51:15.329Z,49.98
2019-05-12T12:52:17.196Z,49.91
2019-05-12T12:53:23.837Z,49.62
2019-05-12T12:54:28.311Z,49.91
2019-05-12T12:55:38.021Z,50.38
2019-05-12T12:56:39.236Z,49.81
2019-05-12T12:57:46.400Z,48.18
2019-05-12T12:58:50.274Z,47.13
2019-05-12T12:59:55.781Z,46.17
2019-05-12T13:01:03.548Z,46.65
2019-05-12T13:02:09.120Z,46.46
2019-05-12T13:03:14.183Z,48.11
2019-05-12T13:04:17.828Z,47.99
2019-05-12T13:05:23.949Z,47.44
2019-05-12T13:06:28.858Z,47.25
2019-05-12T13:07:34.369Z,46.58
2019-05-12T13:08:39.883Z,47.92
2019-05-12T13:09:45.395Z,48.30
2019-05-12T13:10:51.921Z,48.11
2019-05-12T13:11:56.423Z,47.34
2019-05-12T13:13:04.201Z,46.96
2019-05-12T13:14:07.443Z,47.63
2019-05-12T13:15:14.444Z,47.66
2019-05-12T13:16:18.473Z,48.33
2019-05-12T13:17:27.183Z,48.04
2019-05-12T13:18:33.164Z,46.60
2019-05-12T13:19:35.014Z,47.75
2019-05-12T13:20:40.529Z,47.46
2019-05-12T13:21:46.039Z,46.60
2019-05-12T13:22:53.519Z,46.98
2019-05-12T13:23:57.068Z,46.89
2019-05-12T13:25:04.454Z,46.79
2019-05-12T13:26:08.097Z,45.83
2019-05-12T13:27:14.181Z,45.93
2019-05-12T13:28:19.579Z,44.68
2019-05-12T13:29:26.368Z,44.30
2019-05-12T13:30:45.080Z,44.49
2019-05-12T13:31:35.664Z,44.78
2019-05-12T13:32:41.170Z,43.91
2019-05-12T13:33:49.502Z,43.80
2019-05-12T13:34:52.212Z,43.90
2019-05-12T13:35:57.713Z,44.09
2019-05-12T13:37:03.501Z,43.99
2019-05-12T13:38:08.737Z,44.27
2019-05-12T13:39:16.322Z,44.95
2019-05-12T13:40:19.766Z,45.23
2019-05-12T13:41:25.279Z,44.56
2019-05-12T13:42:35.881Z,44.37
2019-05-12T13:43:36.303Z,44.66
2019-05-12T13:44:43.623Z,45.52
2019-05-12T13:45:47.336Z,46.31
2019-05-12T13:46:54.761Z,45.74
2019-05-12T13:47:58.365Z,44.78
2019-05-12T13:49:03.878Z,44.97
2019-05-12T13:50:13.387Z,44.78
2019-05-12T13:51:15.833Z,44.97
2019-05-12T13:52:25.442Z,45.64
2019-05-12T13:53:25.943Z,45.62
2019-05-12T13:54:31.442Z,44.68
2019-05-12T13:55:39.411Z,45.33
2019-05-12T13:56:44.284Z,46.00
2019-05-12T13:57:56.384Z,46.50
2019-05-12T13:58:53.970Z,46.00
2019-05-12T14:00:06.830Z,44.95
2019-05-12T14:01:20.879Z,45.72
2019-05-12T14:02:13.972Z,46.19
2019-05-12T14:03:15.550Z,46.29